EJA237 KAPF-KEYW
Flight info
| Callsign | EJA237 |
|---|---|
| Flight time | 0h 30m |
| Altitude | 21000 |
| Route | GOODY KARTR KRAKN1 |
| Aircraft | CL60/M-SBDE1E2E3FGHIJ1J4J5J7M3RWXYZ/LB1V1D1 |
Departure
| Time | 2026-04-24 11:37 |
|---|---|
| Airport | Naples Municipal Airport (KAPF) |
Arrival
| Time | 2026-04-24 12:07 |
|---|---|
| Airport | Key West International Airport (KEYW) |
| Time | Latitude | Longitude | Altitude | Speed | Heading |
|---|---|---|---|---|---|
| 2026-04-24 11:17 | 26.14909 | -81.77535 | 8 ft | 0 kts | 229° |
| 2026-04-24 11:33 | 26.14909 | -81.77536 | 8 ft | 0 kts | 229° |
| 2026-04-24 11:33 | 26.14906 | -81.77554 | 8 ft | 4 kts | 292° |
| 2026-04-24 11:33 | 26.14937 | -81.77599 | 8 ft | 9 kts | 312° |
| 2026-04-24 11:34 | 26.14988 | -81.77656 | 8 ft | 6 kts | 304° |
| 2026-04-24 11:34 | 26.14965 | -81.77707 | 8 ft | 10 kts | 222° |
| 2026-04-24 11:34 | 26.14907 | -81.77769 | 8 ft | 12 kts | 224° |
| 2026-04-24 11:34 | 26.14837 | -81.77845 | 8 ft | 16 kts | 224° |
| 2026-04-24 11:35 | 26.14769 | -81.77917 | 8 ft | 13 kts | 224° |
| 2026-04-24 11:35 | 26.14692 | -81.78001 | 8 ft | 17 kts | 224° |
| 2026-04-24 11:35 | 26.14620 | -81.78079 | 8 ft | 12 kts | 224° |
| 2026-04-24 11:35 | 26.14561 | -81.78143 | 8 ft | 5 kts | 230° |
| 2026-04-24 11:36 | 26.14580 | -81.78191 | 8 ft | 9 kts | 314° |
| 2026-04-24 11:36 | 26.14617 | -81.78233 | 8 ft | 0 kts | 315° |
| 2026-04-24 11:36 | 26.14630 | -81.78236 | 8 ft | 3 kts | 25° |
| 2026-04-24 11:36 | 26.14662 | -81.78204 | 8 ft | 23 kts | 44° |
| 2026-04-24 11:37 | 26.15066 | -81.77766 | 8 ft | 135 kts | 44° |
| 2026-04-24 11:37 | 26.15893 | -81.76899 | 532 ft | 180 kts | 43° |
| 2026-04-24 11:37 | 26.16857 | -81.75954 | 1510 ft | 198 kts | 44° |
| 2026-04-24 11:37 | 26.18094 | -81.75169 | 2046 ft | 219 kts | 23° |
| 2026-04-24 11:38 | 26.19600 | -81.74870 | 1943 ft | 216 kts | 6° |
| 2026-04-24 11:38 | 26.21082 | -81.74822 | 1887 ft | 209 kts | 3° |
| 2026-04-24 11:38 | 26.22586 | -81.74855 | 1930 ft | 228 kts | 355° |
| 2026-04-24 11:38 | 26.24096 | -81.75452 | 2663 ft | 236 kts | 325° |
| 2026-04-24 11:39 | 26.25147 | -81.76871 | 3246 ft | 247 kts | 291° |
| 2026-04-24 11:39 | 26.25333 | -81.78716 | 3982 ft | 245 kts | 257° |
| 2026-04-24 11:39 | 26.24612 | -81.80389 | 4652 ft | 244 kts | 230° |
| 2026-04-24 11:39 | 26.23479 | -81.81804 | 4981 ft | 244 kts | 225° |
| 2026-04-24 11:40 | 26.22304 | -81.83154 | 5027 ft | 241 kts | 224° |
| 2026-04-24 11:40 | 26.21120 | -81.84464 | 5035 ft | 240 kts | 223° |
| 2026-04-24 11:40 | 26.19929 | -81.85790 | 5004 ft | 240 kts | 223° |
| 2026-04-24 11:40 | 26.18750 | -81.87103 | 4959 ft | 239 kts | 222° |
| 2026-04-24 11:41 | 26.17358 | -81.88084 | 4870 ft | 236 kts | 195° |
| 2026-04-24 11:41 | 26.15729 | -81.88183 | 4874 ft | 247 kts | 165° |
| 2026-04-24 11:41 | 26.14123 | -81.87369 | 5474 ft | 252 kts | 146° |
| 2026-04-24 11:41 | 26.12713 | -81.86304 | 5996 ft | 243 kts | 143° |
| 2026-04-24 11:42 | 26.11320 | -81.85196 | 6469 ft | 251 kts | 143° |
| 2026-04-24 11:42 | 26.09859 | -81.84026 | 7048 ft | 267 kts | 144° |
| 2026-04-24 11:42 | 26.08332 | -81.82783 | 7730 ft | 280 kts | 144° |
| 2026-04-24 11:42 | 26.06750 | -81.81467 | 8340 ft | 287 kts | 143° |
| 2026-04-24 11:43 | 26.05150 | -81.80120 | 8910 ft | 293 kts | 144° |
| 2026-04-24 11:43 | 26.03513 | -81.78716 | 9418 ft | 297 kts | 143° |
| 2026-04-24 11:43 | 26.01935 | -81.77341 | 10408 ft | 287 kts | 143° |
| 2026-04-24 11:43 | 26.00384 | -81.75983 | 11701 ft | 291 kts | 143° |
| 2026-04-24 11:44 | 25.98789 | -81.74579 | 12972 ft | 297 kts | 143° |
| 2026-04-24 11:44 | 25.97188 | -81.73158 | 14224 ft | 300 kts | 143° |
| 2026-04-24 11:44 | 25.95573 | -81.71712 | 15488 ft | 301 kts | 143° |
| 2026-04-24 11:44 | 25.93976 | -81.70282 | 16743 ft | 298 kts | 143° |
| 2026-04-24 11:45 | 25.92395 | -81.68869 | 17937 ft | 295 kts | 143° |
| 2026-04-24 11:45 | 25.90765 | -81.67425 | 18689 ft | 309 kts | 143° |
| 2026-04-24 11:45 | 25.89028 | -81.65898 | 19380 ft | 324 kts | 144° |
| 2026-04-24 11:45 | 25.87060 | -81.64687 | 20028 ft | 334 kts | 163° |
| 2026-04-24 11:46 | 25.84746 | -81.63893 | 20284 ft | 360 kts | 166° |
| 2026-04-24 11:46 | 25.82247 | -81.63075 | 20514 ft | 385 kts | 165° |
| 2026-04-24 11:46 | 25.79654 | -81.62140 | 20779 ft | 399 kts | 164° |
| 2026-04-24 11:46 | 25.76962 | -81.61148 | 20991 ft | 404 kts | 164° |
| 2026-04-24 11:47 | 25.74303 | -81.60188 | 21016 ft | 402 kts | 165° |
| 2026-04-24 11:47 | 25.71639 | -81.59235 | 21006 ft | 400 kts | 165° |
| 2026-04-24 11:47 | 25.68977 | -81.58278 | 21003 ft | 399 kts | 164° |
| 2026-04-24 11:47 | 25.66308 | -81.57312 | 21003 ft | 399 kts | 164° |
| 2026-04-24 11:48 | 25.63680 | -81.56359 | 21003 ft | 398 kts | 164° |
| 2026-04-24 11:48 | 25.61031 | -81.55401 | 21003 ft | 398 kts | 164° |
| 2026-04-24 11:48 | 25.58391 | -81.54449 | 21005 ft | 398 kts | 164° |
| 2026-04-24 11:48 | 25.55771 | -81.53507 | 20992 ft | 398 kts | 165° |
| 2026-04-24 11:49 | 25.53073 | -81.52541 | 20653 ft | 402 kts | 165° |
| 2026-04-24 11:49 | 25.50375 | -81.51971 | 20179 ft | 391 kts | 180° |
| 2026-04-24 11:49 | 25.47735 | -81.52254 | 19659 ft | 378 kts | 198° |
| 2026-04-24 11:49 | 25.45283 | -81.53292 | 19123 ft | 371 kts | 207° |
| 2026-04-24 11:50 | 25.42917 | -81.54424 | 18637 ft | 367 kts | 206° |
| 2026-04-24 11:50 | 25.40556 | -81.55503 | 18176 ft | 366 kts | 205° |
| 2026-04-24 11:50 | 25.38200 | -81.56576 | 17688 ft | 364 kts | 206° |
| 2026-04-24 11:50 | 25.35890 | -81.57645 | 17210 ft | 361 kts | 205° |
| 2026-04-24 11:51 | 25.33556 | -81.58730 | 16725 ft | 358 kts | 206° |
| 2026-04-24 11:51 | 25.31291 | -81.59778 | 16253 ft | 355 kts | 205° |
| 2026-04-24 11:51 | 25.29022 | -81.60822 | 15777 ft | 349 kts | 205° |
| 2026-04-24 11:51 | 25.26793 | -81.61850 | 15306 ft | 343 kts | 205° |
| 2026-04-24 11:52 | 25.24618 | -81.62855 | 14876 ft | 336 kts | 205° |
| 2026-04-24 11:52 | 25.22463 | -81.63846 | 14439 ft | 330 kts | 205° |
| 2026-04-24 11:52 | 25.20338 | -81.64823 | 13999 ft | 328 kts | 205° |
| 2026-04-24 11:52 | 25.18256 | -81.65782 | 13576 ft | 328 kts | 205° |
| 2026-04-24 11:53 | 25.16144 | -81.66756 | 13116 ft | 328 kts | 205° |
| 2026-04-24 11:53 | 25.14043 | -81.67728 | 12700 ft | 325 kts | 205° |
| 2026-04-24 11:53 | 25.11952 | -81.68691 | 12267 ft | 321 kts | 205° |
| 2026-04-24 11:53 | 25.09918 | -81.69623 | 11849 ft | 316 kts | 205° |
| 2026-04-24 11:54 | 25.07892 | -81.70553 | 11429 ft | 311 kts | 205° |
| 2026-04-24 11:54 | 25.05914 | -81.71464 | 11020 ft | 306 kts | 205° |
| 2026-04-24 11:54 | 25.03956 | -81.72368 | 10616 ft | 302 kts | 205° |
| 2026-04-24 11:54 | 25.02050 | -81.73246 | 10219 ft | 298 kts | 205° |
| 2026-04-24 11:55 | 25.00130 | -81.74128 | 9827 ft | 294 kts | 205° |
| 2026-04-24 11:55 | 24.98258 | -81.74986 | 9463 ft | 289 kts | 205° |
| 2026-04-24 11:55 | 24.96423 | -81.75827 | 9170 ft | 282 kts | 205° |
| 2026-04-24 11:55 | 24.94619 | -81.76655 | 8890 ft | 282 kts | 204° |
| 2026-04-24 11:56 | 24.92801 | -81.77492 | 8533 ft | 283 kts | 205° |
| 2026-04-24 11:56 | 24.90981 | -81.78329 | 8227 ft | 280 kts | 204° |
| 2026-04-24 11:56 | 24.89188 | -81.79153 | 7999 ft | 277 kts | 204° |
| 2026-04-24 11:56 | 24.87428 | -81.80077 | 7992 ft | 276 kts | 213° |
| 2026-04-24 11:57 | 24.85820 | -81.81250 | 7986 ft | 270 kts | 215° |
| 2026-04-24 11:57 | 24.84274 | -81.82367 | 7873 ft | 261 kts | 214° |
| 2026-04-24 11:57 | 24.82758 | -81.83428 | 7551 ft | 257 kts | 213° |
| 2026-04-24 11:57 | 24.81258 | -81.84484 | 7243 ft | 253 kts | 214° |
| 2026-04-24 11:58 | 24.79801 | -81.85523 | 6922 ft | 250 kts | 214° |
| 2026-04-24 11:58 | 24.78335 | -81.86571 | 6588 ft | 247 kts | 214° |
| 2026-04-24 11:58 | 24.76901 | -81.87588 | 6272 ft | 243 kts | 213° |
| 2026-04-24 11:58 | 24.75478 | -81.88592 | 5947 ft | 242 kts | 213° |
| 2026-04-24 11:59 | 24.74059 | -81.89593 | 5578 ft | 242 kts | 213° |
| 2026-04-24 11:59 | 24.72652 | -81.90588 | 5126 ft | 244 kts | 212° |
| 2026-04-24 11:59 | 24.71217 | -81.91607 | 4715 ft | 245 kts | 212° |
| 2026-04-24 11:59 | 24.69785 | -81.92622 | 4351 ft | 244 kts | 211° |
| 2026-04-24 12:00 | 24.68354 | -81.93635 | 3968 ft | 243 kts | 211° |
| 2026-04-24 12:00 | 24.66929 | -81.94640 | 3603 ft | 241 kts | 211° |
| 2026-04-24 12:00 | 24.65567 | -81.95603 | 3394 ft | 223 kts | 211° |
| 2026-04-24 12:00 | 24.64309 | -81.96485 | 3109 ft | 210 kts | 207° |
| 2026-04-24 12:01 | 24.62985 | -81.96887 | 2982 ft | 184 kts | 177° |
| 2026-04-24 12:01 | 24.61701 | -81.96828 | 2977 ft | 187 kts | 175° |
| 2026-04-24 12:01 | 24.60401 | -81.96801 | 2669 ft | 186 kts | 177° |
| 2026-04-24 12:01 | 24.59130 | -81.96808 | 2521 ft | 175 kts | 177° |
| 2026-04-24 12:02 | 24.57952 | -81.96802 | 2331 ft | 166 kts | 176° |
| 2026-04-24 12:02 | 24.56797 | -81.96764 | 2095 ft | 162 kts | 171° |
| 2026-04-24 12:02 | 24.55820 | -81.96263 | 1856 ft | 153 kts | 132° |
| 2026-04-24 12:02 | 24.55428 | -81.95221 | 1754 ft | 152 kts | 96° |
| 2026-04-24 12:03 | 24.55445 | -81.94054 | 1748 ft | 155 kts | 90° |
| 2026-04-24 12:03 | 24.55462 | -81.92864 | 1724 ft | 156 kts | 92° |
| 2026-04-24 12:03 | 24.55443 | -81.91666 | 1684 ft | 157 kts | 92° |
| 2026-04-24 12:03 | 24.55450 | -81.90472 | 1636 ft | 157 kts | 91° |
| 2026-04-24 12:04 | 24.55480 | -81.89262 | 1589 ft | 157 kts | 91° |
| 2026-04-24 12:04 | 24.55496 | -81.88068 | 1536 ft | 156 kts | 91° |
| 2026-04-24 12:04 | 24.55497 | -81.86924 | 1461 ft | 138 kts | 92° |
| 2026-04-24 12:04 | 24.55504 | -81.85905 | 1492 ft | 129 kts | 91° |
| 2026-04-24 12:05 | 24.55518 | -81.84937 | 1442 ft | 127 kts | 91° |
| 2026-04-24 12:05 | 24.55531 | -81.83981 | 1246 ft | 122 kts | 92° |
| 2026-04-24 12:05 | 24.55538 | -81.83050 | 1111 ft | 122 kts | 92° |
| 2026-04-24 12:05 | 24.55543 | -81.82117 | 960 ft | 121 kts | 92° |
| 2026-04-24 12:06 | 24.55545 | -81.81201 | 818 ft | 121 kts | 91° |
| 2026-04-24 12:06 | 24.55571 | -81.80295 | 666 ft | 118 kts | 92° |
| 2026-04-24 12:06 | 24.55581 | -81.79385 | 491 ft | 120 kts | 91° |
| 2026-04-24 12:06 | 24.55592 | -81.78471 | 344 ft | 120 kts | 93° |
| 2026-04-24 12:07 | 24.55592 | -81.77547 | 180 ft | 119 kts | 92° |
| 2026-04-24 12:07 | 24.55605 | -81.76652 | 33 ft | 115 kts | 91° |
| 2026-04-24 12:07 | 24.55612 | -81.75931 | 8 ft | 49 kts | 89° |
| 2026-04-24 12:07 | 24.55614 | -81.75701 | 7 ft | 22 kts | 89° |
| 2026-04-24 12:08 | 24.55610 | -81.75599 | 7 ft | 7 kts | 122° |
| 2026-04-24 12:08 | 24.55550 | -81.75588 | 7 ft | 6 kts | 180° |
| 2026-04-24 12:08 | 24.55530 | -81.75604 | 7 ft | 5 kts | 254° |
| 2026-04-24 12:08 | 24.55529 | -81.75668 | 7 ft | 5 kts | 269° |
| 2026-04-24 12:09 | 24.55528 | -81.75689 | 7 ft | 4 kts | 269° |
| 2026-04-24 12:09 | 24.55523 | -81.75729 | 7 ft | 3 kts | 202° |
| 2026-04-24 12:09 | 24.55497 | -81.75729 | 7 ft | 3 kts | 177° |
| 2026-04-24 12:09 | 24.55480 | -81.75760 | 7 ft | 7 kts | 261° |
| 2026-04-24 12:10 | 24.55457 | -81.75780 | 7 ft | 4 kts | 157° |
| 2026-04-24 12:10 | 24.55443 | -81.75758 | 7 ft | 2 kts | 88° |
| 2026-04-24 12:10 | 24.55443 | -81.75756 | 7 ft | 0 kts | 88° |